Time;durP1;ratioP1;P1;durP2;ratioP2;P2;SDS_P1;SDS_P2;PMS_P1;PMS_P2;Temp;Humidity;BMP_temperature;BMP_pressure;BME280_temperature;BME280_humidity;BME280_pressure;Samples;Min_cycle;Max_cycle;Signal;HPM_P1;HPM_P2
2022/05/17 00:01:06;;;;;;;6.80;3.83;;;;;;;18.81;48.41;94903.06;4143226;28;20054;-55
2022/05/17 00:03:09;;;;;;;7.47;3.70;;;;;;;18.74;48.56;94908.34;4142962;28;20182;-55
2022/05/17 00:05:11;;;;;;;9.25;3.60;;;;;;;18.73;48.49;94901.41;4142912;28;20112;-54
2022/05/17 00:07:13;;;;;;;5.00;3.78;;;;;;;18.74;48.65;94903.06;4142568;28;20517;-52
2022/05/17 00:09:16;;;;;;;12.95;4.25;;;;;;;18.73;48.92;94901.41;4139841;28;20053;-54
2022/05/17 00:11:18;;;;;;;6.05;3.85;;;;;;;18.72;49.21;94904.28;4143141;28;20050;-55
2022/05/17 00:13:20;;;;;;;9.02;4.05;;;;;;;18.44;49.52;94899.97;4142978;28;20521;-51
2022/05/17 00:15:22;;;;;;;7.03;3.85;;;;;;;18.13;50.17;94911.13;4141315;28;20160;-58
2022/05/17 00:17:24;;;;;;;4.63;3.58;;;;;;;17.80;51.00;94902.03;4142833;28;20057;-52
2022/05/17 00:19:25;;;;;;;6.43;3.42;;;;;;;17.46;51.92;94905.56;4135432;28;20049;-56
2022/05/17 00:21:27;;;;;;;6.20;3.65;;;;;;;17.39;52.26;94910.03;4138051;28;20054;-52
2022/05/17 00:23:29;;;;;;;6.40;3.53;;;;;;;17.43;51.79;94903.31;4123183;28;20054;-53
2022/05/17 00:25:31;;;;;;;4.93;3.63;;;;;;;17.38;51.82;94903.09;4125945;28;20062;-55
2022/05/17 00:27:32;;;;;;;5.90;3.67;;;;;;;17.36;51.77;94910.44;4126092;28;20047;-54
2022/05/17 00:29:34;;;;;;;4.53;3.42;;;;;;;17.09;52.15;94906.81;4126133;28;20062;-55
2022/05/17 00:31:36;;;;;;;7.72;3.15;;;;;;;16.80;52.80;94906.00;4126586;28;20140;-55
2022/05/17 00:33:38;;;;;;;6.45;3.88;;;;;;;16.64;53.33;94908.88;4125872;28;20187;-54
2022/05/17 00:35:43;;;;;;;5.25;3.72;;;;;;;16.72;53.26;94906.91;4126398;28;20057;-55
2022/05/17 00:37:45;;;;;;;6.00;3.38;;;;;;;16.85;53.22;94908.06;4126782;28;20058;-56
2022/05/17 00:39:47;;;;;;;4.80;3.42;;;;;;;17.04;53.05;94901.28;4124742;28;20054;-53
2022/05/17 00:41:49;;;;;;;5.10;3.13;;;;;;;17.03;52.17;94902.28;4126391;28;20203;-55
2022/05/17 00:46:11;;;;;;;5.35;3.75;;;;;;;16.87;52.46;94898.09;4139655;28;20459;-55
2022/05/17 00:48:13;;;;;;;7.30;3.05;;;;;;;16.73;52.81;94905.91;4140653;28;20057;-54
2022/05/17 00:50:30;;;;;;;8.35;4.40;;;;;;;16.66;52.98;94910.31;4124790;28;20050;-56
2022/05/17 00:52:43;;;;;;;5.88;4.10;;;;;;;16.37;54.11;94904.19;4126380;28;20046;-55
2022/05/17 00:54:46;;;;;;;6.88;4.22;;;;;;;15.96;54.39;94902.16;4124566;28;20065;-54
2022/05/17 00:57:10;;;;;;;7.82;4.20;;;;;;;15.96;54.56;94910.09;4141005;28;20089;-56
2022/05/17 00:59:12;;;;;;;7.05;4.38;;;;;;;15.76;54.51;94906.41;4131972;28;20054;-54
2022/05/17 01:01:20;;;;;;;5.65;3.67;;;;;;;15.81;54.44;94901.41;4141005;28;20384;-53
2022/05/17 01:03:24;;;;;;;6.40;3.63;;;;;;;15.95;54.99;94903.16;4142076;28;20056;-54
2022/05/17 01:05:26;;;;;;;8.63;4.18;;;;;;;16.16;54.19;94898.91;4140896;28;20050;-54
2022/05/17 01:07:34;;;;;;;6.63;3.83;;;;;;;16.38;53.32;94892.59;4142170;28;20119;-53
2022/05/17 01:09:36;;;;;;;5.90;3.67;;;;;;;16.57;52.48;94890.31;4123781;28;20176;-50
2022/05/17 01:11:37;;;;;;;5.93;3.25;;;;;;;16.73;52.27;94890.03;4142501;28;20062;-53
2022/05/17 01:16:00;;;;;;;5.32;3.45;;;;;;;17.05;51.51;94887.03;4142516;28;20426;-56
2022/05/17 01:18:03;;;;;;;5.18;3.53;;;;;;;17.15;51.05;94892.78;4142198;28;20348;-53
2022/05/17 01:20:11;;;;;;;8.43;3.28;;;;;;;17.15;50.81;94882.19;4140918;28;20045;-54
2022/05/17 01:22:13;;;;;;;7.45;3.40;;;;;;;17.16;51.00;94874.06;4138634;28;20053;-54
2022/05/17 01:24:15;;;;;;;8.80;3.50;;;;;;;17.24;50.80;94881.03;4140862;28;20054;-54
2022/05/17 01:26:22;;;;;;;8.43;3.58;;;;;;;17.32;50.55;94883.50;4142148;28;20468;-57
2022/05/17 01:28:29;;;;;;;6.47;3.20;;;;;;;17.37;50.55;94874.97;4141186;28;20135;-55
2022/05/17 01:30:32;;;;;;;7.50;3.78;;;;;;;17.33;50.45;94876.38;4142305;28;20112;-54
2022/05/17 01:32:34;;;;;;;9.25;3.47;;;;;;;17.25;50.68;94872.09;4135579;28;20350;-53
2022/05/17 01:34:36;;;;;;;6.97;3.85;;;;;;;17.15;50.73;94875.06;4137581;28;20054;-55
2022/05/17 01:36:39;;;;;;;6.57;3.47;;;;;;;16.81;51.67;94880.34;4142529;28;20042;-56
2022/05/17 01:38:45;;;;;;;5.82;3.47;;;;;;;16.56;52.14;94889.50;4140916;28;20124;-54
2022/05/17 01:40:47;;;;;;;4.47;3.58;;;;;;;16.29;52.68;94882.34;4142672;28;20156;-55
2022/05/17 01:42:49;;;;;;;9.95;3.53;;;;;;;16.22;53.04;94882.31;4142282;28;20459;-55
2022/05/17 01:44:51;;;;;;;6.07;3.20;;;;;;;16.18;53.17;94881.03;4142423;28;20061;-54
2022/05/17 01:46:53;;;;;;;7.68;3.20;;;;;;;16.24;53.38;94882.09;4145328;28;20046;-52
2022/05/17 01:48:55;;;;;;;6.25;3.63;;;;;;;16.40;52.92;94883.66;4135076;28;20407;-55
2022/05/17 01:50:56;;;;;;;4.82;3.83;;;;;;;16.47;52.68;94885.34;4144384;28;20089;-55
2022/05/17 01:52:58;;;;;;;8.32;3.05;;;;;;;16.37;53.07;94879.59;4143453;28;20057;-57
2022/05/17 01:55:00;;;;;;;6.25;3.75;;;;;;;16.46;53.20;94894.31;4145206;28;20058;-56
2022/05/17 01:57:02;;;;;;;6.45;3.63;;;;;;;16.45;52.70;94887.38;4145534;28;20596;-54
2022/05/17 01:59:03;;;;;;;5.53;3.85;;;;;;;16.37;52.77;94890.97;4129525;28;20519;-56
2022/05/17 02:01:07;;;;;;;8.68;3.50;;;;;;;16.22;53.25;94892.03;4129355;28;20074;-55
2022/05/17 02:03:09;;;;;;;;;;;;;;;16.20;53.62;94889.59;4144216;28;20057;-51
2022/05/17 02:05:10;;;;;;;5.70;3.65;;;;;;;16.29;53.62;94892.94;4145411;28;19988;-54
2022/05/17 02:07:12;;;;;;;5.13;3.88;;;;;;;16.40;53.46;94891.59;4145178;28;20057;-54
2022/05/17 02:09:14;;;;;;;6.57;3.78;;;;;;;16.49;53.39;94888.63;4143541;28;20478;-53
2022/05/17 02:11:16;;;;;;;4.97;3.70;;;;;;;16.61;53.05;94890.78;4145361;28;20061;-57
2022/05/17 02:13:18;;;;;;;5.85;3.40;;;;;;;16.67;52.82;94890.81;4145288;28;20053;-57
2022/05/17 02:15:20;;;;;;;8.77;4.03;;;;;;;16.70;52.73;94886.97;4145311;28;20065;-55
2022/05/17 02:17:22;;;;;;;6.93;4.00;;;;;;;16.76;52.66;94886.19;4145186;28;20053;-56
2022/05/17 02:19:24;;;;;;;7.32;3.90;;;;;;;16.81;52.54;94890.94;4144833;28;20058;-55
2022/05/17 02:21:26;;;;;;;5.70;3.85;;;;;;;16.90;52.21;94892.41;4141027;28;20066;-57
2022/05/17 02:23:28;;;;;;;4.93;3.45;;;;;;;17.00;51.95;94898.19;4143134;28;20050;-54
2022/05/17 02:25:29;;;;;;;5.63;3.35;;;;;;;17.06;51.50;94905.38;4145126;28;20053;-52
2022/05/17 02:27:32;;;;;;;6.43;3.65;;;;;;;17.05;51.65;94893.13;4144957;28;20045;-55
2022/05/17 02:29:34;;;;;;;7.53;3.83;;;;;;;17.07;51.70;94898.22;4145117;28;20096;-53
2022/05/17 02:31:35;;;;;;;6.25;3.75;;;;;;;17.05;51.45;94887.84;4145136;28;20045;-55
2022/05/17 02:33:37;;;;;;;5.25;3.58;;;;;;;17.04;51.62;94891.50;4144674;28;20085;-53
2022/05/17 02:35:40;;;;;;;4.90;3.80;;;;;;;17.09;51.67;94893.56;4143465;28;20058;-54
2022/05/17 02:37:42;;;;;;;7.60;3.70;;;;;;;17.15;51.65;94892.78;4144939;28;20135;-55
2022/05/17 02:39:47;;;;;;;8.55;4.15;;;;;;;17.17;51.72;94896.06;4143128;28;20072;-54
2022/05/17 02:41:48;;;;;;;6.88;3.83;;;;;;;17.20;51.29;94895.66;4144744;28;20125;-52
2022/05/17 02:43:50;;;;;;;7.05;3.95;;;;;;;17.22;51.61;94890.19;4144710;28;20054;-54
2022/05/17 02:45:53;;;;;;;6.90;3.95;;;;;;;17.19;51.80;94884.25;4144765;28;20050;-53
2022/05/17 02:47:55;;;;;;;5.18;3.83;;;;;;;17.13;51.68;94887.69;4144287;28;20049;-54
2022/05/17 02:49:57;;;;;;;6.53;4.13;;;;;;;17.12;51.85;94886.06;4144582;28;20054;-53
2022/05/17 02:52:02;;;;;;;11.18;4.22;;;;;;;17.17;51.63;94890.78;4144604;28;20111;-52
2022/05/17 02:54:06;;;;;;;8.93;4.53;;;;;;;17.13;51.58;94887.69;4143006;28;20054;-52
2022/05/17 02:56:09;;;;;;;8.30;3.80;;;;;;;17.12;52.05;94883.41;4144222;28;20538;-55
2022/05/17 02:58:11;;;;;;;6.72;4.30;;;;;;;17.10;52.11;94887.25;4144706;28;20460;-53
2022/05/17 03:00:14;;;;;;;9.88;4.03;;;;;;;17.12;52.20;94894.00;4144581;28;20120;-56
2022/05/17 03:02:16;;;;;;;;;;;;;;;17.11;52.21;94888.91;4144888;28;20077;-54
2022/05/17 03:04:18;;;;;;;7.28;4.07;;;;;;;17.08;52.43;94883.97;4144003;28;19948;-54
2022/05/17 03:06:20;;;;;;;6.65;4.78;;;;;;;17.08;52.45;94886.63;4144594;28;20119;-53
2022/05/17 03:08:22;;;;;;;12.45;5.38;;;;;;;16.90;53.00;94890.59;4140841;28;20792;-49
2022/05/17 03:10:23;;;;;;;12.60;5.47;;;;;;;16.75;53.46;94898.59;4144907;28;20049;-50
2022/05/17 03:12:25;;;;;;;8.32;5.40;;;;;;;16.61;53.91;94891.56;4145096;28;20569;-52
2022/05/17 03:14:27;;;;;;;7.95;5.47;;;;;;;16.49;54.16;94895.75;4144905;28;20116;-53
2022/05/17 03:16:30;;;;;;;10.80;5.50;;;;;;;16.42;54.40;94894.88;4143145;28;20129;-50
2022/05/17 03:18:32;;;;;;;11.70;4.97;;;;;;;16.41;54.81;94895.88;4144476;28;20046;-52
2022/05/17 03:20:34;;;;;;;8.55;4.93;;;;;;;16.43;54.58;94889.38;4144591;28;20046;-54
2022/05/17 03:22:37;;;;;;;10.02;5.82;;;;;;;16.51;54.51;94893.72;4138252;28;20054;-57
2022/05/17 03:24:39;;;;;;;8.57;5.00;;;;;;;16.52;54.26;94893.53;4139344;28;20430;-53
2022/05/17 03:27:01;;;;;;;10.07;5.15;;;;;;;16.54;54.17;94896.81;4144084;28;20066;-54
2022/05/17 03:29:02;;;;;;;10.07;5.20;;;;;;;16.51;54.27;94893.72;4144416;28;20069;-53
2022/05/17 03:31:08;;;;;;;14.18;5.22;;;;;;;16.51;54.49;94899.03;4144212;28;20123;-56
2022/05/17 03:33:10;;;;;;;8.38;4.50;;;;;;;16.53;54.45;94895.16;4143804;28;20054;-52
2022/05/17 03:35:12;;;;;;;7.70;4.88;;;;;;;16.59;54.67;94898.88;4144225;28;20126;-54
2022/05/17 03:37:14;;;;;;;8.43;5.43;;;;;;;16.66;54.63;94904.22;4144162;28;20054;-55
2022/05/17 03:39:16;;;;;;;10.07;5.03;;;;;;;16.71;54.38;94896.53;4142451;28;20104;-53
2022/05/17 03:41:17;;;;;;;8.85;5.10;;;;;;;16.68;53.83;94905.66;4144220;28;20450;-53
2022/05/17 03:43:20;;;;;;;8.27;4.97;;;;;;;16.63;54.31;94908.06;4144211;28;20164;-54
2022/05/17 03:45:21;;;;;;;10.88;5.25;;;;;;;16.61;54.19;94907.44;4143754;28;20086;-53
2022/05/17 03:47:24;;;;;;;12.77;6.28;;;;;;;16.62;54.21;94903.78;4143830;28;20491;-53
2022/05/17 03:49:26;;;;;;;11.90;5.15;;;;;;;16.63;54.12;94907.22;4143551;28;20057;-56
2022/05/17 03:51:27;;;;;;;10.38;5.38;;;;;;;16.62;54.07;94903.78;4143889;28;20057;-53
2022/05/17 03:53:29;;;;;;;13.27;6.05;;;;;;;16.64;54.39;94909.69;4142295;28;20061;-55
2022/05/17 03:55:31;;;;;;;9.10;5.32;;;;;;;16.77;54.15;94914.28;4143926;28;20443;-49
2022/05/17 03:57:33;;;;;;;9.07;5.32;;;;;;;16.89;53.91;94910.13;4143830;28;20066;-54
2022/05/17 03:59:35;;;;;;;10.90;5.93;;;;;;;17.01;53.35;94913.03;4143948;28;20065;-55
2022/05/17 04:01:37;;;;;;;14.00;5.43;;;;;;;17.05;53.02;94906.34;4143967;28;20050;-53
2022/05/17 04:03:40;;;;;;;9.88;5.40;;;;;;;17.11;53.09;94907.44;4143473;28;20061;-54
2022/05/17 04:05:42;;;;;;;19.20;7.10;;;;;;;17.19;53.29;94904.63;4143857;28;20080;-52
2022/05/17 04:07:44;;;;;;;13.02;6.18;;;;;;;17.28;52.89;94906.09;4143458;28;20050;-54
2022/05/17 04:09:46;;;;;;;14.25;7.80;;;;;;;17.37;52.95;94901.47;4141937;28;20053;-54
2022/05/17 04:11:47;;;;;;;10.48;6.47;;;;;;;17.46;52.76;94905.56;4144011;28;20116;-57
2022/05/17 04:13:49;;;;;;;16.52;7.28;;;;;;;17.54;52.34;94900.09;4143362;28;20456;-55
2022/05/17 04:15:51;;;;;;;7.72;5.65;;;;;;;17.58;52.20;94898.69;4143723;28;20049;-54
2022/05/17 04:17:54;;;;;;;12.23;6.38;;;;;;;17.65;52.08;94897.91;4141965;28;20125;-57
2022/05/17 04:19:58;;;;;;;9.10;6.90;;;;;;;17.68;52.12;94900.16;4143467;28;20113;-54
2022/05/17 04:22:00;;;;;;;10.07;7.25;;;;;;;17.74;51.89;94902.84;4143433;28;20104;-54
2022/05/17 04:24:02;;;;;;;13.45;6.47;;;;;;;17.80;52.02;94906.53;4139869;28;20083;-54
2022/05/17 04:26:04;;;;;;;9.90;6.20;;;;;;;17.86;51.93;94913.72;4143084;28;20050;-55
2022/05/17 04:28:06;;;;;;;9.73;5.82;;;;;;;17.91;51.92;94913.94;4143212;28;20516;-55
2022/05/17 04:30:08;;;;;;;10.20;5.85;;;;;;;17.96;51.55;94922.13;4143370;28;20053;-54
2022/05/17 04:32:10;;;;;;;11.90;5.88;;;;;;;17.98;51.26;94920.09;4143596;28;20100;-55
2022/05/17 04:34:12;;;;;;;10.40;5.80;;;;;;;18.07;51.01;94923.38;4143005;28;20111;-57
2022/05/17 04:36:13;;;;;;;12.80;5.80;;;;;;;18.08;50.74;94929.50;4143387;28;20062;-54
2022/05/17 04:38:15;;;;;;;9.30;5.38;;;;;;;18.09;51.25;94928.47;4141885;28;20119;-56
2022/05/17 04:40:17;;;;;;;9.63;5.72;;;;;;;18.16;51.27;94926.66;4143081;28;20104;-53
2022/05/17 04:42:19;;;;;;;10.25;6.10;;;;;;;18.06;50.44;94923.56;4143499;28;20499;-53
2022/05/17 04:44:21;;;;;;;8.57;5.60;;;;;;;17.95;50.91;94922.31;4143148;28;20144;-53
2022/05/17 04:46:23;;;;;;;11.32;6.28;;;;;;;17.91;51.33;94918.41;4142723;28;20483;-56
2022/05/17 04:48:25;;;;;;;14.57;5.95;;;;;;;18.00;51.41;94923.38;4137179;28;20597;-54
2022/05/17 04:50:27;;;;;;;16.63;5.80;;;;;;;18.13;50.83;94927.03;4126820;28;20128;-53
2022/05/17 04:52:28;;;;;;;14.77;5.63;;;;;;;18.27;50.50;94927.91;4127036;28;20424;-54
2022/05/17 04:54:30;;;;;;;8.73;5.70;;;;;;;18.36;50.35;94926.69;4125303;28;20431;-53
2022/05/17 04:56:34;;;;;;;12.88;5.68;;;;;;;18.28;49.73;94921.56;4126799;28;20116;-53
2022/05/17 04:58:36;;;;;;;9.95;5.30;;;;;;;18.20;49.99;94917.28;4126739;28;20118;-54
2022/05/17 05:00:38;;;;;;;14.15;5.40;;;;;;;18.04;50.07;94915.00;4126938;28;20062;-54
2022/05/17 05:02:39;;;;;;;10.80;5.88;;;;;;;18.05;50.11;94909.50;4139963;28;20112;-55
2022/05/17 05:04:41;;;;;;;8.18;6.63;;;;;;;18.17;50.39;94907.88;4141664;28;20214;-55
2022/05/17 05:06:43;;;;;;;7.53;5.35;;;;;;;18.30;50.16;94908.94;4142012;28;20100;-53
2022/05/17 05:08:45;;;;;;;10.43;6.10;;;;;;;18.45;49.86;94919.34;4141497;28;20115;-55
2022/05/17 05:10:47;;;;;;;13.98;6.07;;;;;;;18.54;49.70;94918.13;4143139;28;20146;-54
2022/05/17 05:12:49;;;;;;;11.57;5.55;;;;;;;18.63;49.06;94914.28;4142839;28;20054;-56
2022/05/17 05:14:51;;;;;;;11.00;5.72;;;;;;;18.62;49.36;94910.78;4143087;28;20149;-54
2022/05/17 05:16:52;;;;;;;18.17;6.60;;;;;;;18.59;49.31;94919.16;4143127;28;20080;-56
2022/05/17 05:18:54;;;;;;;9.25;6.25;;;;;;;18.53;49.27;94914.66;4142833;28;20477;-53
2022/05/17 05:21:25;;;;;;;13.52;7.32;;;;;;;18.49;49.37;94907.31;4146093;28;20108;-55
2022/05/17 05:23:27;;;;;;;11.57;6.13;;;;;;;18.59;49.08;94915.72;4125797;28;20119;-54
2022/05/17 05:25:28;;;;;;;8.77;5.97;;;;;;;18.76;48.56;94914.28;4141283;28;20510;-53
2022/05/17 05:27:32;;;;;;;10.70;6.10;;;;;;;18.86;48.11;94905.91;4128526;28;20058;-53
2022/05/17 05:29:34;;;;;;;10.32;5.38;;;;;;;18.98;48.05;94909.59;4129825;28;20555;-55
2022/05/17 05:31:35;;;;;;;8.43;5.10;;;;;;;19.08;47.70;94913.66;4129953;28;20058;-53
2022/05/17 05:33:39;;;;;;;10.18;6.20;;;;;;;18.99;47.92;94913.06;4129299;28;20062;-55
2022/05/17 05:35:40;;;;;;;9.80;6.22;;;;;;;18.99;48.00;94919.22;4130056;28;20054;-53
2022/05/17 05:37:42;;;;;;;15.68;6.65;;;;;;;18.93;47.91;94911.22;4129786;28;20043;-52
2022/05/17 05:39:44;;;;;;;17.13;6.53;;;;;;;18.87;48.05;94915.53;4128178;28;20197;-53
2022/05/17 05:41:45;;;;;;;9.68;6.45;;;;;;;18.89;48.32;94918.00;4141879;28;20466;-52
2022/05/17 05:43:47;;;;;;;12.05;6.28;;;;;;;18.84;48.61;94915.94;4145662;28;20104;-56
2022/05/17 05:45:49;;;;;;;15.80;7.15;;;;;;;18.92;48.68;94915.72;4145785;28;20620;-50
2022/05/17 05:47:51;;;;;;;8.70;6.35;;;;;;;19.02;48.90;94917.97;4144513;28;20072;-54
2022/05/17 05:49:53;;;;;;;11.88;6.70;;;;;;;19.05;48.63;94919.41;4129270;28;20270;-56
2022/05/17 05:51:54;;;;;;;13.15;6.72;;;;;;;18.99;48.00;94915.72;4129538;28;20058;-54
2022/05/17 05:53:56;;;;;;;11.52;6.75;;;;;;;18.92;48.16;94921.03;4127840;28;20134;-52
2022/05/17 05:56:01;;;;;;;14.77;7.40;;;;;;;18.81;48.53;94919.81;4129040;28;20062;-54
2022/05/17 05:58:04;;;;;;;21.20;6.95;;;;;;;18.93;48.44;94917.38;4129483;28;20187;-54
2022/05/17 06:00:06;;;;;;;18.02;6.68;;;;;;;19.09;48.19;94918.78;4129443;28;20460;-53
2022/05/17 06:02:09;;;;;;;12.13;6.85;;;;;;;19.08;48.28;94917.16;4138280;28;20557;-54
2022/05/17 06:04:11;;;;;;;14.13;6.20;;;;;;;19.19;47.93;94916.50;4145213;28;20795;-53
2022/05/17 06:06:14;;;;;;;11.88;6.28;;;;;;;19.34;47.85;94910.16;4145409;28;20119;-58
2022/05/17 06:08:17;;;;;;;17.00;7.05;;;;;;;19.51;47.61;94908.69;4143933;28;20115;-54
2022/05/17 06:10:20;;;;;;;8.87;6.23;;;;;;;19.67;47.21;94910.06;4143749;28;20057;-56
2022/05/17 06:12:22;;;;;;;13.07;6.82;;;;;;;19.59;46.48;94907.63;4145235;28;20049;-55
2022/05/17 06:14:24;;;;;;;21.35;7.10;;;;;;;19.42;46.59;94910.75;4145240;28;20128;-53
2022/05/17 06:16:25;;;;;;;13.82;6.70;;;;;;;19.37;46.95;94909.72;4145240;28;20049;-54
2022/05/17 06:18:27;;;;;;;16.75;7.32;;;;;;;19.31;47.01;94911.38;4144784;28;20171;-55
2022/05/17 06:20:29;;;;;;;14.13;7.60;;;;;;;19.11;47.59;94903.44;4144875;28;20049;-54
2022/05/17 06:22:31;;;;;;;12.40;6.60;;;;;;;19.15;47.48;94909.19;4133111;28;20093;-53
2022/05/17 06:24:33;;;;;;;12.48;7.15;;;;;;;19.32;47.35;94914.88;4129281;28;20053;-55
2022/05/17 06:26:35;;;;;;;15.35;6.50;;;;;;;19.35;46.94;94909.13;4141767;28;20432;-54
2022/05/17 06:28:36;;;;;;;8.88;6.25;;;;;;;19.49;46.58;94918.69;4145106;28;20107;-50
2022/05/17 06:30:41;;;;;;;12.98;7.32;;;;;;;19.44;46.44;94915.84;4144579;28;20076;-52
2022/05/17 06:32:43;;;;;;;9.65;6.43;;;;;;;19.14;47.02;94918.97;4144698;28;20077;-55
2022/05/17 06:34:45;;;;;;;11.65;7.57;;;;;;;19.17;46.57;94915.91;4144274;28;20104;-53
2022/05/17 06:36:47;;;;;;;13.77;6.53;;;;;;;19.33;46.81;94913.81;4144899;28;20119;-56
2022/05/17 06:38:56;;;;;;;16.75;7.47;;;;;;;19.20;47.36;94907.50;4143253;28;20053;-52
2022/05/17 06:40:57;;;;;;;10.68;6.93;;;;;;;19.46;47.16;94907.66;4144849;28;20107;-55
2022/05/17 06:42:59;;;;;;;15.55;7.22;;;;;;;19.60;46.64;94910.06;4143969;28;20498;-54
2022/05/17 06:45:02;;;;;;;15.43;8.45;;;;;;;19.49;47.10;94900.09;4144902;28;20057;-54
2022/05/17 06:47:05;;;;;;;13.55;7.55;;;;;;;19.60;46.41;94901.28;4144703;28;20418;-50
2022/05/17 06:49:06;;;;;;;11.38;6.32;;;;;;;19.76;46.02;94905.34;4144261;28;20050;-53
2022/05/17 06:51:08;;;;;;;9.85;6.75;;;;;;;19.89;45.53;94899.97;4144974;28;20087;-58
2022/05/17 06:53:10;;;;;;;14.90;6.82;;;;;;;20.04;45.39;94900.50;4142887;28;20054;-52
2022/05/17 06:55:13;;;;;;;12.27;6.63;;;;;;;20.01;45.29;94895.63;4144700;28;20422;-55
2022/05/17 06:57:15;;;;;;;11.10;6.32;;;;;;;20.16;44.95;94900.66;4144516;28;20096;-51
2022/05/17 06:59:18;;;;;;;15.55;7.15;;;;;;;20.24;44.65;94904.88;4144457;28;20049;-57
2022/05/17 07:01:20;;;;;;;13.95;6.90;;;;;;;20.23;44.61;94901.41;4142769;28;20049;-54
2022/05/17 07:03:22;;;;;;;9.70;6.35;;;;;;;20.07;44.72;94898.44;4144307;28;20191;-55
2022/05/17 07:05:25;;;;;;;11.98;6.05;;;;;;;20.05;45.53;94894.16;4144695;28;20436;-53
2022/05/17 07:07:27;;;;;;;8.00;6.20;;;;;;;20.30;44.88;94892.56;4144167;28;20092;-57
2022/05/17 07:09:29;;;;;;;7.55;6.03;;;;;;;20.51;44.47;94892.22;4142685;28;20505;-54
2022/05/17 07:13:52;;;;;;;10.30;5.90;;;;;;;20.54;44.10;94893.63;4144193;28;20058;-55
2022/05/17 07:15:54;;;;;;;12.75;6.55;;;;;;;20.45;44.23;94899.22;4144203;28;20050;-55
2022/05/17 07:18:00;;;;;;;12.48;6.35;;;;;;;20.60;44.19;94885.63;4144150;28;20140;-52
2022/05/17 07:20:02;;;;;;;13.98;7.20;;;;;;;20.85;43.83;94893.63;4144115;28;20058;-57
2022/05/17 07:22:06;;;;;;;15.35;7.55;;;;;;;20.97;43.30;94890.25;4143994;28;20050;-56
2022/05/17 07:24:08;;;;;;;13.95;6.53;;;;;;;21.02;43.33;94893.88;4142709;28;20058;-55
2022/05/17 07:26:11;;;;;;;12.85;7.22;;;;;;;20.94;43.04;94885.38;4140109;28;20057;-54
2022/05/17 07:28:19;;;;;;;17.52;9.18;;;;;;;20.95;43.45;94877.16;4143403;28;20058;-52
2022/05/17 07:30:21;;;;;;;21.58;7.13;;;;;;;20.91;43.83;94881.31;4144465;28;20276;-57
2022/05/17 07:32:23;;;;;;;11.23;6.10;;;;;;;20.97;43.37;94882.25;4144306;28;20077;-55
2022/05/17 07:34:25;;;;;;;10.15;6.03;;;;;;;21.13;43.04;94879.03;4144014;28;20062;-52
2022/05/17 07:36:27;;;;;;;18.85;7.90;;;;;;;21.06;42.92;94875.63;4144031;28;20046;-52
2022/05/17 07:38:28;;;;;;;16.40;7.97;;;;;;;21.19;42.84;94880.81;4142124;28;20053;-55
2022/05/17 07:40:30;;;;;;;14.23;6.88;;;;;;;21.36;42.59;94870.41;4143653;28;20053;-54
2022/05/17 07:42:32;;;;;;;12.85;7.78;;;;;;;21.48;42.11;94870.50;4143213;28;20062;-54
2022/05/17 07:44:34;;;;;;;16.00;7.05;;;;;;;21.66;42.27;94862.50;4143370;28;20145;-55
2022/05/17 07:46:36;;;;;;;12.98;6.72;;;;;;;21.70;41.71;94867.38;4142028;28;20486;-55
2022/05/17 07:48:38;;;;;;;10.98;6.15;;;;;;;21.90;42.21;94865.28;4143026;28;20056;-55
2022/05/17 07:50:40;;;;;;;14.13;6.63;;;;;;;22.03;41.66;94867.75;4143198;28;20116;-56
2022/05/17 07:52:42;;;;;;;10.68;5.60;;;;;;;22.00;41.70;94859.38;4143388;28;20746;-52
2022/05/17 07:54:44;;;;;;;13.73;6.00;;;;;;;21.86;41.74;94866.75;4142363;28;20251;-54
2022/05/17 07:56:46;;;;;;;12.80;6.47;;;;;;;21.76;41.82;94855.81;4143508;28;20066;-54
2022/05/17 07:58:48;;;;;;;15.13;5.72;;;;;;;21.95;41.67;94853.94;4143750;28;20046;-58
2022/05/17 08:00:50;;;;;;;13.30;5.75;;;;;;;22.18;41.53;94855.88;4143549;28;20503;-53
2022/05/17 08:02:53;;;;;;;9.20;5.57;;;;;;;22.45;41.12;94851.75;4143054;28;20050;-57
2022/05/17 08:05:02;;;;;;;13.93;5.65;;;;;;;22.28;40.73;94854.31;4190291;28;20390;-54
2022/05/17 08:07:04;;;;;;;16.00;6.60;;;;;;;22.28;40.56;94848.97;4190205;28;20059;-55
2022/05/17 08:09:06;;;;;;;13.82;6.63;;;;;;;22.54;40.26;94852.25;4188628;28;20056;-53
2022/05/17 08:11:08;;;;;;;12.05;5.68;;;;;;;22.64;39.76;94846.34;4190230;28;20137;-54
2022/05/17 08:13:09;;;;;;;10.73;5.43;;;;;;;22.70;39.74;94840.91;4190011;28;20690;-55
2022/05/17 08:15:12;;;;;;;9.82;4.75;;;;;;;22.47;39.37;94847.00;4188771;28;20145;-56
2022/05/17 08:17:14;;;;;;;13.27;5.18;;;;;;;22.65;38.99;94839.94;4189989;28;20053;-51
2022/05/17 08:19:15;;;;;;;14.07;5.20;;;;;;;22.64;38.96;94841.00;4189790;28;20052;-54
2022/05/17 08:21:17;;;;;;;14.98;4.75;;;;;;;22.69;39.08;94838.44;4187661;28;20068;-55
2022/05/17 08:23:19;;;;;;;8.90;4.93;;;;;;;22.89;39.69;94833.59;4171668;28;20135;-53
2022/05/17 08:27:42;;;;;;;7.00;4.85;;;;;;;23.16;38.35;94838.47;4179115;28;20098;-53
2022/05/17 08:29:44;;;;;;;10.90;4.80;;;;;;;23.24;38.71;94827.44;4173715;28;20048;-55
2022/05/17 08:34:08;;;;;;;9.00;4.50;;;;;;;;;;4172878;28;20127;-56
2022/05/17 08:36:11;;;;;;;8.65;4.13;;;;;;;23.38;36.12;94830.69;4173124;28;20053;-56
2022/05/17 08:38:16;;;;;;;5.80;3.33;;;;;;;23.61;36.42;94821.78;4171473;28;20389;-54
2022/05/17 08:40:21;;;;;;;8.77;3.92;;;;;;;23.89;36.71;94828.22;4173181;28;20049;-55
2022/05/17 08:42:51;;;;;;;10.57;3.88;;;;;;;24.00;34.98;94827.34;4173076;28;20078;-52
2022/05/17 08:44:57;;;;;;;13.77;4.18;;;;;;;24.09;35.23;94827.78;4168829;28;20193;-57
2022/05/17 08:47:02;;;;;;;10.23;4.13;;;;;;;23.90;35.50;94825.31;4171760;28;20057;-52
2022/05/17 08:49:52;;;;;;;7.75;4.25;;;;;;;23.83;35.58;94827.34;4172824;28;20497;-56
2022/05/17 08:52:07;;;;;;;8.60;3.85;;;;;;;23.84;33.54;94820.91;4172741;28;20758;-52
2022/05/17 08:54:16;;;;;;;6.30;3.05;;;;;;;23.71;31.63;94818.50;4169980;28;20053;-53
2022/05/17 08:56:18;;;;;;;7.45;3.25;;;;;;;23.79;31.70;94822.66;4171664;28;20049;-52
2022/05/17 08:58:28;;;;;;;8.98;3.10;;;;;;;24.07;32.50;94821.84;4172846;28;20072;-56
2022/05/17 09:00:43;;;;;;;4.00;2.30;;;;;;;24.32;30.68;94818.81;4171284;28;20053;-54
2022/05/17 09:02:52;;;;;;;5.45;3.38;;;;;;;24.07;32.91;94824.53;4186838;28;20060;-54
2022/05/17 09:05:16;;;;;;;10.98;3.30;;;;;;;24.04;31.73;94825.81;4188915;28;20053;-53
2022/05/17 09:07:28;;;;;;;;;;;;;;;24.17;31.41;94819.34;4189921;28;20061;-53
2022/05/17 09:09:53;;;;;;;7.90;2.67;;;;;;;24.56;31.39;94807.97;4187414;28;19965;-52
2022/05/17 09:12:03;;;;;;;4.45;2.88;;;;;;;24.67;31.57;94809.75;4189107;28;20407;-53
2022/05/17 09:14:14;;;;;;;5.75;3.28;;;;;;;24.48;31.98;94807.34;4187778;28;20063;-55
2022/05/17 09:16:23;;;;;;;13.70;4.07;;;;;;;24.41;31.73;94812.00;4178439;28;20143;-56
2022/05/17 09:18:26;;;;;;;;;;;;;;;24.41;31.67;94801.28;4176623;28;20056;-54
2022/05/17 09:20:31;;;;;;;7.45;2.83;;;;;;;24.21;30.61;94809.00;4177911;28;19975;-55
2022/05/17 09:22:34;;;;;;;5.55;2.90;;;;;;;24.40;31.26;94799.69;4164338;28;20061;-52
2022/05/17 09:24:39;;;;;;;5.78;2.70;;;;;;;24.57;30.76;94809.63;4159899;28;20049;-55
2022/05/17 09:26:49;;;;;;;5.32;3.20;;;;;;;24.57;30.88;94801.59;4161334;28;20060;-56
2022/05/17 09:28:51;;;;;;;5.57;3.08;;;;;;;24.60;31.15;94801.91;4172493;28;20434;-53
2022/05/17 09:31:13;;;;;;;7.47;2.60;;;;;;;24.77;30.87;94799.22;4161246;28;20122;-53
2022/05/17 09:33:20;;;;;;;4.80;2.05;;;;;;;24.87;28.41;94803.91;4160789;28;20549;-55
2022/05/17 09:35:22;;;;;;;3.35;2.00;;;;;;;25.00;27.47;94797.41;4161081;28;20085;-54
2022/05/17 09:37:34;;;;;;;4.82;2.70;;;;;;;25.18;28.28;94783.69;4161337;28;20053;-55
2022/05/17 09:39:36;;;;;;;6.40;2.50;;;;;;;25.31;28.16;94778.00;4159671;28;20139;-55
2022/05/17 09:41:39;;;;;;;8.18;2.92;;;;;;;25.48;28.33;94777.13;4161382;28;20092;-54
2022/05/17 09:44:09;;;;;;;4.35;2.40;;;;;;;25.57;28.31;94775.63;4159702;28;20073;-54
2022/05/17 09:46:14;;;;;;;6.10;2.60;;;;;;;25.78;29.39;94776.66;4161027;28;20057;-56
2022/05/17 09:52:32;;;;;;;3.65;2.30;;;;;;;26.00;28.77;94773.94;4160523;28;20079;-54
2022/05/17 09:53:21;;;;;;;4.18;2.50;;;;;;;26.08;26.68;94757.38;4175965;28;20146;-55
2022/05/17 09:55:30;;;;;;;4.55;2.30;;;;;;;26.03;27.57;94768.09;4176231;28;20247;-53